sensor_id;sensor_type;location;lat;lon;timestamp;P1;durP1;ratioP1;P2;durP2;ratioP2
68025;SDS011;54819;48.030;14.710;2022-11-02T00:00:52;17.90;;;10.50;;
68025;SDS011;54819;48.030;14.710;2022-11-02T00:03:20;19.80;;;10.80;;
68025;SDS011;54819;48.030;14.710;2022-11-02T00:05:47;23.50;;;11.00;;
68025;SDS011;54819;48.030;14.710;2022-11-02T00:08:14;15.20;;;8.80;;
68025;SDS011;54819;48.030;14.710;2022-11-02T00:10:40;14.90;;;8.60;;
68025;SDS011;54819;48.030;14.710;2022-11-02T00:13:07;15.80;;;9.50;;
68025;SDS011;54819;48.030;14.710;2022-11-02T00:15:35;17.80;;;8.70;;
68025;SDS011;54819;48.030;14.710;2022-11-02T00:20:35;17.50;;;8.70;;
68025;SDS011;54819;48.030;14.710;2022-11-02T00:23:04;16.20;;;8.80;;
68025;SDS011;54819;48.030;14.710;2022-11-02T00:25:33;18.90;;;9.60;;
68025;SDS011;54819;48.030;14.710;2022-11-02T00:28:03;18.60;;;9.80;;
68025;SDS011;54819;48.030;14.710;2022-11-02T00:30:30;18.60;;;9.80;;
68025;SDS011;54819;48.030;14.710;2022-11-02T00:32:57;16.80;;;8.40;;
68025;SDS011;54819;48.030;14.710;2022-11-02T00:35:24;17.90;;;9.40;;
68025;SDS011;54819;48.030;14.710;2022-11-02T00:37:50;17.60;;;8.60;;
68025;SDS011;54819;48.030;14.710;2022-11-02T00:40:17;16.20;;;8.60;;
68025;SDS011;54819;48.030;14.710;2022-11-02T00:42:44;18.80;;;9.20;;
68025;SDS011;54819;48.030;14.710;2022-11-02T00:45:11;16.40;;;8.70;;
68025;SDS011;54819;48.030;14.710;2022-11-02T00:47:38;15.60;;;8.10;;
68025;SDS011;54819;48.030;14.710;2022-11-02T00:50:06;20.40;;;10.30;;
68025;SDS011;54819;48.030;14.710;2022-11-02T00:52:37;16.00;;;7.90;;
68025;SDS011;54819;48.030;14.710;2022-11-02T00:55:06;14.50;;;8.30;;
68025;SDS011;54819;48.030;14.710;2022-11-02T00:57:36;18.80;;;8.30;;
68025;SDS011;54819;48.030;14.710;2022-11-02T01:00:07;22.20;;;8.60;;
68025;SDS011;54819;48.030;14.710;2022-11-02T01:02:38;13.50;;;7.10;;
68025;SDS011;54819;48.030;14.710;2022-11-02T01:05:06;15.80;;;7.70;;
68025;SDS011;54819;48.030;14.710;2022-11-02T01:07:35;12.90;;;7.30;;
68025;SDS011;54819;48.030;14.710;2022-11-02T01:10:05;13.90;;;7.30;;
68025;SDS011;54819;48.030;14.710;2022-11-02T01:12:35;14.90;;;8.20;;
68025;SDS011;54819;48.030;14.710;2022-11-02T01:15:06;14.00;;;7.90;;
68025;SDS011;54819;48.030;14.710;2022-11-02T01:17:34;17.00;;;8.20;;
68025;SDS011;54819;48.030;14.710;2022-11-02T01:20:03;16.00;;;8.00;;
68025;SDS011;54819;48.030;14.710;2022-11-02T01:22:31;14.30;;;8.50;;
68025;SDS011;54819;48.030;14.710;2022-11-02T01:24:58;14.70;;;7.80;;
68025;SDS011;54819;48.030;14.710;2022-11-02T01:27:25;13.30;;;8.60;;
68025;SDS011;54819;48.030;14.710;2022-11-02T01:29:51;15.20;;;7.90;;
68025;SDS011;54819;48.030;14.710;2022-11-02T01:32:18;15.00;;;7.70;;
68025;SDS011;54819;48.030;14.710;2022-11-02T01:34:45;13.10;;;7.30;;
68025;SDS011;54819;48.030;14.710;2022-11-02T01:37:14;13.40;;;7.00;;
68025;SDS011;54819;48.030;14.710;2022-11-02T01:39:40;14.00;;;7.40;;
68025;SDS011;54819;48.030;14.710;2022-11-02T01:44:46;19.00;;;9.10;;
68025;SDS011;54819;48.030;14.710;2022-11-02T01:47:43;12.80;;;7.30;;
68025;SDS011;54819;48.030;14.710;2022-11-02T01:50:25;15.20;;;6.70;;
68025;SDS011;54819;48.030;14.710;2022-11-02T01:52:53;10.90;;;5.90;;
68025;SDS011;54819;48.030;14.710;2022-11-02T01:55:23;11.50;;;6.10;;
68025;SDS011;54819;48.030;14.710;2022-11-02T01:57:58;10.80;;;7.30;;
68025;SDS011;54819;48.030;14.710;2022-11-02T02:00:29;13.00;;;5.80;;
68025;SDS011;54819;48.030;14.710;2022-11-02T02:03:10;9.50;;;5.40;;
68025;SDS011;54819;48.030;14.710;2022-11-02T02:05:48;13.40;;;5.70;;
68025;SDS011;54819;48.030;14.710;2022-11-02T02:08:24;10.20;;;5.80;;
68025;SDS011;54819;48.030;14.710;2022-11-02T02:10:56;9.70;;;5.50;;
68025;SDS011;54819;48.030;14.710;2022-11-02T02:13:26;12.00;;;6.40;;
68025;SDS011;54819;48.030;14.710;2022-11-02T02:16:04;10.80;;;5.80;;
68025;SDS011;54819;48.030;14.710;2022-11-02T02:18:52;11.10;;;5.30;;
68025;SDS011;54819;48.030;14.710;2022-11-02T02:21:52;13.30;;;6.20;;
68025;SDS011;54819;48.030;14.710;2022-11-02T02:24:43;12.50;;;5.90;;
68025;SDS011;54819;48.030;14.710;2022-11-02T02:27:30;14.50;;;7.00;;
68025;SDS011;54819;48.030;14.710;2022-11-02T02:30:18;12.60;;;6.60;;
68025;SDS011;54819;48.030;14.710;2022-11-02T02:32:57;14.30;;;7.30;;
68025;SDS011;54819;48.030;14.710;2022-11-02T02:35:37;13.90;;;7.20;;
68025;SDS011;54819;48.030;14.710;2022-11-02T02:38:23;13.60;;;7.00;;
68025;SDS011;54819;48.030;14.710;2022-11-02T02:41:12;13.40;;;6.90;;
68025;SDS011;54819;48.030;14.710;2022-11-02T02:43:45;14.50;;;7.00;;
68025;SDS011;54819;48.030;14.710;2022-11-02T02:46:36;13.60;;;7.10;;
68025;SDS011;54819;48.030;14.710;2022-11-02T02:49:10;13.90;;;6.80;;
68025;SDS011;54819;48.030;14.710;2022-11-02T02:51:43;15.20;;;7.70;;
68025;SDS011;54819;48.030;14.710;2022-11-02T02:54:18;15.20;;;7.50;;
68025;SDS011;54819;48.030;14.710;2022-11-02T02:56:54;13.60;;;7.80;;
68025;SDS011;54819;48.030;14.710;2022-11-02T02:59:31;46.30;;;8.10;;
68025;SDS011;54819;48.030;14.710;2022-11-02T03:02:05;12.30;;;6.70;;
68025;SDS011;54819;48.030;14.710;2022-11-02T03:04:35;16.60;;;6.70;;
68025;SDS011;54819;48.030;14.710;2022-11-02T03:07:02;11.50;;;6.30;;
68025;SDS011;54819;48.030;14.710;2022-11-02T03:09:39;11.20;;;6.00;;
68025;SDS011;54819;48.030;14.710;2022-11-02T03:34:37;16.60;;;8.60;;
68025;SDS011;54819;48.030;14.710;2022-11-02T03:39:55;17.10;;;7.80;;
68025;SDS011;54819;48.030;14.710;2022-11-02T03:42:32;15.90;;;8.80;;
68025;SDS011;54819;48.030;14.710;2022-11-02T03:45:06;18.30;;;8.70;;
68025;SDS011;54819;48.030;14.710;2022-11-02T03:47:38;25.00;;;9.80;;
68025;SDS011;54819;48.030;14.710;2022-11-02T03:50:10;17.80;;;8.30;;
68025;SDS011;54819;48.030;14.710;2022-11-02T03:52:42;19.80;;;7.70;;
68025;SDS011;54819;48.030;14.710;2022-11-02T03:55:17;22.10;;;9.90;;
68025;SDS011;54819;48.030;14.710;2022-11-02T03:57:48;16.70;;;7.90;;
68025;SDS011;54819;48.030;14.710;2022-11-02T04:00:23;24.80;;;8.30;;
68025;SDS011;54819;48.030;14.710;2022-11-02T04:02:59;37.50;;;14.30;;
68025;SDS011;54819;48.030;14.710;2022-11-02T04:05:33;43.40;;;17.60;;
68025;SDS011;54819;48.030;14.710;2022-11-02T04:08:20;39.60;;;15.60;;
68025;SDS011;54819;48.030;14.710;2022-11-02T04:10:58;24.90;;;11.40;;
68025;SDS011;54819;48.030;14.710;2022-11-02T04:13:44;45.70;;;15.80;;
68025;SDS011;54819;48.030;14.710;2022-11-02T04:16:34;25.70;;;10.70;;
68025;SDS011;54819;48.030;14.710;2022-11-02T04:19:03;14.30;;;7.70;;
68025;SDS011;54819;48.030;14.710;2022-11-02T04:21:50;18.50;;;8.30;;
68025;SDS011;54819;48.030;14.710;2022-11-02T04:24:36;15.80;;;7.50;;
68025;SDS011;54819;48.030;14.710;2022-11-02T04:27:22;17.50;;;8.20;;
68025;SDS011;54819;48.030;14.710;2022-11-02T04:29:49;15.60;;;8.60;;
68025;SDS011;54819;48.030;14.710;2022-11-02T04:32:17;18.60;;;9.20;;
68025;SDS011;54819;48.030;14.710;2022-11-02T04:35:04;18.70;;;8.50;;
68025;SDS011;54819;48.030;14.710;2022-11-02T04:37:37;15.30;;;7.50;;
68025;SDS011;54819;48.030;14.710;2022-11-02T04:40:29;18.60;;;7.50;;
68025;SDS011;54819;48.030;14.710;2022-11-02T04:42:56;16.40;;;8.20;;
68025;SDS011;54819;48.030;14.710;2022-11-02T04:45:23;13.90;;;8.20;;
68025;SDS011;54819;48.030;14.710;2022-11-02T04:47:50;16.90;;;6.80;;
68025;SDS011;54819;48.030;14.710;2022-11-02T04:50:17;12.40;;;7.10;;
68025;SDS011;54819;48.030;14.710;2022-11-02T04:52:54;18.50;;;7.90;;
68025;SDS011;54819;48.030;14.710;2022-11-02T04:55:25;13.80;;;7.10;;
68025;SDS011;54819;48.030;14.710;2022-11-02T04:57:52;16.50;;;6.90;;
68025;SDS011;54819;48.030;14.710;2022-11-02T05:00:20;23.50;;;9.60;;
68025;SDS011;54819;48.030;14.710;2022-11-02T05:02:49;19.10;;;7.80;;
68025;SDS011;54819;48.030;14.710;2022-11-02T05:05:18;18.00;;;8.00;;
68025;SDS011;54819;48.030;14.710;2022-11-02T05:07:47;26.90;;;13.80;;
68025;SDS011;54819;48.030;14.710;2022-11-02T05:10:14;23.20;;;10.50;;
68025;SDS011;54819;48.030;14.710;2022-11-02T05:12:41;26.50;;;12.40;;
68025;SDS011;54819;48.030;14.710;2022-11-02T05:15:09;34.20;;;14.10;;
68025;SDS011;54819;48.030;14.710;2022-11-02T05:17:36;43.30;;;16.10;;
68025;SDS011;54819;48.030;14.710;2022-11-02T05:22:34;26.80;;;12.60;;
68025;SDS011;54819;48.030;14.710;2022-11-02T05:25:01;22.30;;;9.50;;
68025;SDS011;54819;48.030;14.710;2022-11-02T05:27:28;29.90;;;11.40;;
68025;SDS011;54819;48.030;14.710;2022-11-02T05:29:55;26.10;;;10.60;;
68025;SDS011;54819;48.030;14.710;2022-11-02T05:32:22;15.30;;;6.70;;
68025;SDS011;54819;48.030;14.710;2022-11-02T05:34:49;21.20;;;6.70;;
68025;SDS011;54819;48.030;14.710;2022-11-02T05:37:16;15.70;;;6.00;;
68025;SDS011;54819;48.030;14.710;2022-11-02T05:39:43;12.90;;;6.40;;
68025;SDS011;54819;48.030;14.710;2022-11-02T05:42:15;13.40;;;5.90;;
68025;SDS011;54819;48.030;14.710;2022-11-02T05:44:42;16.90;;;6.90;;
68025;SDS011;54819;48.030;14.710;2022-11-02T05:47:09;14.70;;;7.50;;
68025;SDS011;54819;48.030;14.710;2022-11-02T05:49:35;18.30;;;8.30;;
68025;SDS011;54819;48.030;14.710;2022-11-02T05:52:02;14.90;;;7.50;;
68025;SDS011;54819;48.030;14.710;2022-11-02T05:54:29;14.80;;;7.00;;
68025;SDS011;54819;48.030;14.710;2022-11-02T05:56:56;14.00;;;6.90;;
68025;SDS011;54819;48.030;14.710;2022-11-02T05:59:23;18.10;;;8.00;;
68025;SDS011;54819;48.030;14.710;2022-11-02T06:01:50;13.10;;;6.90;;
68025;SDS011;54819;48.030;14.710;2022-11-02T06:04:17;13.70;;;6.70;;
68025;SDS011;54819;48.030;14.710;2022-11-02T06:06:44;14.00;;;7.50;;
68025;SDS011;54819;48.030;14.710;2022-11-02T06:09:11;15.50;;;6.90;;
68025;SDS011;54819;48.030;14.710;2022-11-02T06:11:38;17.10;;;7.60;;
68025;SDS011;54819;48.030;14.710;2022-11-02T06:14:04;14.80;;;8.00;;
68025;SDS011;54819;48.030;14.710;2022-11-02T06:16:31;14.60;;;6.80;;
68025;SDS011;54819;48.030;14.710;2022-11-02T06:18:58;13.60;;;7.00;;
68025;SDS011;54819;48.030;14.710;2022-11-02T06:21:25;14.40;;;6.60;;
68025;SDS011;54819;48.030;14.710;2022-11-02T06:23:52;15.00;;;7.10;;
68025;SDS011;54819;48.030;14.710;2022-11-02T06:26:19;14.00;;;7.50;;
68025;SDS011;54819;48.030;14.710;2022-11-02T06:28:46;12.00;;;6.80;;
68025;SDS011;54819;48.030;14.710;2022-11-02T06:31:13;21.80;;;9.50;;
68025;SDS011;54819;48.030;14.710;2022-11-02T06:33:43;21.90;;;7.90;;
68025;SDS011;54819;48.030;14.710;2022-11-02T06:38:37;14.70;;;7.80;;
68025;SDS011;54819;48.030;14.710;2022-11-02T06:41:04;16.20;;;9.70;;
68025;SDS011;54819;48.030;14.710;2022-11-02T06:43:34;17.20;;;8.80;;
68025;SDS011;54819;48.030;14.710;2022-11-02T06:46:04;16.40;;;8.80;;
68025;SDS011;54819;48.030;14.710;2022-11-02T06:48:31;15.10;;;8.50;;
68025;SDS011;54819;48.030;14.710;2022-11-02T06:51:04;22.00;;;8.50;;
68025;SDS011;54819;48.030;14.710;2022-11-02T06:53:32;19.60;;;8.80;;
68025;SDS011;54819;48.030;14.710;2022-11-02T06:55:59;18.70;;;10.30;;
68025;SDS011;54819;48.030;14.710;2022-11-02T06:58:27;17.00;;;8.90;;
68025;SDS011;54819;48.030;14.710;2022-11-02T07:00:59;16.10;;;8.30;;
68025;SDS011;54819;48.030;14.710;2022-11-02T07:03:33;19.00;;;9.60;;
68025;SDS011;54819;48.030;14.710;2022-11-02T07:08:28;17.60;;;9.30;;
68025;SDS011;54819;48.030;14.710;2022-11-02T07:10:55;21.00;;;8.90;;
68025;SDS011;54819;48.030;14.710;2022-11-02T07:13:26;21.70;;;9.40;;
68025;SDS011;54819;48.030;14.710;2022-11-02T07:15:53;16.70;;;9.30;;
68025;SDS011;54819;48.030;14.710;2022-11-02T07:18:21;16.40;;;8.30;;
68025;SDS011;54819;48.030;14.710;2022-11-02T07:20:49;16.00;;;8.30;;
68025;SDS011;54819;48.030;14.710;2022-11-02T07:23:16;14.70;;;8.50;;
68025;SDS011;54819;48.030;14.710;2022-11-02T07:25:43;21.30;;;10.80;;
68025;SDS011;54819;48.030;14.710;2022-11-02T07:28:10;23.90;;;10.50;;
68025;SDS011;54819;48.030;14.710;2022-11-02T07:30:36;19.70;;;10.90;;
68025;SDS011;54819;48.030;14.710;2022-11-02T07:33:03;14.70;;;8.80;;
68025;SDS011;54819;48.030;14.710;2022-11-02T07:35:31;19.20;;;9.40;;
68025;SDS011;54819;48.030;14.710;2022-11-02T07:38:01;13.90;;;8.00;;
68025;SDS011;54819;48.030;14.710;2022-11-02T07:40:32;16.20;;;8.00;;
68025;SDS011;54819;48.030;14.710;2022-11-02T07:43:01;14.90;;;7.20;;
68025;SDS011;54819;48.030;14.710;2022-11-02T07:45:35;16.60;;;8.40;;
68025;SDS011;54819;48.030;14.710;2022-11-02T07:48:02;14.90;;;7.80;;
68025;SDS011;54819;48.030;14.710;2022-11-02T07:50:29;15.90;;;9.10;;
68025;SDS011;54819;48.030;14.710;2022-11-02T07:52:57;15.50;;;7.70;;
68025;SDS011;54819;48.030;14.710;2022-11-02T07:55:27;16.70;;;7.90;;
68025;SDS011;54819;48.030;14.710;2022-11-02T07:58:05;15.30;;;7.90;;
68025;SDS011;54819;48.030;14.710;2022-11-02T08:00:37;13.30;;;7.50;;
68025;SDS011;54819;48.030;14.710;2022-11-02T08:03:08;14.00;;;7.10;;
68025;SDS011;54819;48.030;14.710;2022-11-02T08:05:40;15.40;;;7.40;;
68025;SDS011;54819;48.030;14.710;2022-11-02T08:08:16;13.80;;;7.00;;
68025;SDS011;54819;48.030;14.710;2022-11-02T08:10:47;17.30;;;7.40;;
68025;SDS011;54819;48.030;14.710;2022-11-02T08:13:18;12.90;;;7.40;;
68025;SDS011;54819;48.030;14.710;2022-11-02T08:15:50;15.00;;;7.10;;
68025;SDS011;54819;48.030;14.710;2022-11-02T08:18:21;17.90;;;8.20;;
68025;SDS011;54819;48.030;14.710;2022-11-02T08:20:50;16.10;;;8.50;;
68025;SDS011;54819;48.030;14.710;2022-11-02T08:23:18;14.00;;;7.60;;
68025;SDS011;54819;48.030;14.710;2022-11-02T08:25:47;12.40;;;7.00;;
68025;SDS011;54819;48.030;14.710;2022-11-02T08:28:27;15.20;;;8.00;;
68025;SDS011;54819;48.030;14.710;2022-11-02T08:31:02;15.80;;;7.70;;
68025;SDS011;54819;48.030;14.710;2022-11-02T08:33:29;18.60;;;8.70;;
68025;SDS011;54819;48.030;14.710;2022-11-02T08:36:00;23.60;;;9.10;;
68025;SDS011;54819;48.030;14.710;2022-11-02T08:38:29;18.40;;;8.60;;
68025;SDS011;54819;48.030;14.710;2022-11-02T08:40:57;15.40;;;8.30;;
68025;SDS011;54819;48.030;14.710;2022-11-02T08:43:24;13.20;;;7.80;;
68025;SDS011;54819;48.030;14.710;2022-11-02T08:45:51;14.70;;;7.80;;
68025;SDS011;54819;48.030;14.710;2022-11-02T08:48:39;14.20;;;6.70;;
68025;SDS011;54819;48.030;14.710;2022-11-02T08:51:05;16.90;;;7.70;;
68025;SDS011;54819;48.030;14.710;2022-11-02T08:53:34;20.30;;;7.90;;
68025;SDS011;54819;48.030;14.710;2022-11-02T08:56:01;17.20;;;8.10;;
68025;SDS011;54819;48.030;14.710;2022-11-02T08:58:28;14.30;;;7.80;;
68025;SDS011;54819;48.030;14.710;2022-11-02T09:00:55;20.40;;;8.20;;
68025;SDS011;54819;48.030;14.710;2022-11-02T09:03:22;14.30;;;8.10;;
68025;SDS011;54819;48.030;14.710;2022-11-02T09:06:00;14.60;;;8.30;;
68025;SDS011;54819;48.030;14.710;2022-11-02T09:08:29;16.00;;;8.10;;
68025;SDS011;54819;48.030;14.710;2022-11-02T09:10:59;18.30;;;7.70;;
68025;SDS011;54819;48.030;14.710;2022-11-02T09:13:27;15.90;;;7.80;;
68025;SDS011;54819;48.030;14.710;2022-11-02T09:15:56;15.40;;;7.70;;
68025;SDS011;54819;48.030;14.710;2022-11-02T09:18:25;14.00;;;7.30;;
68025;SDS011;54819;48.030;14.710;2022-11-02T09:23:20;15.70;;;7.20;;
68025;SDS011;54819;48.030;14.710;2022-11-02T09:25:48;15.20;;;8.20;;
68025;SDS011;54819;48.030;14.710;2022-11-02T09:28:15;20.40;;;7.90;;
68025;SDS011;54819;48.030;14.710;2022-11-02T09:30:42;13.50;;;7.90;;
68025;SDS011;54819;48.030;14.710;2022-11-02T09:33:10;11.60;;;6.90;;
68025;SDS011;54819;48.030;14.710;2022-11-02T09:35:45;17.20;;;7.90;;
68025;SDS011;54819;48.030;14.710;2022-11-02T09:38:14;13.90;;;7.00;;
68025;SDS011;54819;48.030;14.710;2022-11-02T09:40:53;15.80;;;7.40;;
68025;SDS011;54819;48.030;14.710;2022-11-02T09:44:21;11.00;;;7.20;;
68025;SDS011;54819;48.030;14.710;2022-11-02T09:46:35;13.80;;;7.20;;
68025;SDS011;54819;48.030;14.710;2022-11-02T09:51:56;19.10;;;8.90;;
68025;SDS011;54819;48.030;14.710;2022-11-02T09:54:41;15.10;;;7.50;;
68025;SDS011;54819;48.030;14.710;2022-11-02T09:57:15;15.70;;;7.60;;
68025;SDS011;54819;48.030;14.710;2022-11-02T09:59:45;14.90;;;7.70;;
68025;SDS011;54819;48.030;14.710;2022-11-02T10:02:51;15.10;;;8.10;;
68025;SDS011;54819;48.030;14.710;2022-11-02T10:11:32;16.70;;;7.20;;
68025;SDS011;54819;48.030;14.710;2022-11-02T10:14:23;15.20;;;8.10;;
68025;SDS011;54819;48.030;14.710;2022-11-02T10:17:17;15.50;;;7.20;;
68025;SDS011;54819;48.030;14.710;2022-11-02T10:19:54;12.80;;;6.40;;
68025;SDS011;54819;48.030;14.710;2022-11-02T10:22:31;12.40;;;7.10;;
68025;SDS011;54819;48.030;14.710;2022-11-02T10:25:06;14.60;;;8.20;;
68025;SDS011;54819;48.030;14.710;2022-11-02T10:27:37;15.00;;;7.40;;
68025;SDS011;54819;48.030;14.710;2022-11-02T10:30:06;16.50;;;6.90;;
68025;SDS011;54819;48.030;14.710;2022-11-02T10:32:40;16.50;;;8.50;;
68025;SDS011;54819;48.030;14.710;2022-11-02T10:35:19;16.70;;;7.70;;
68025;SDS011;54819;48.030;14.710;2022-11-02T10:38:46;15.60;;;7.50;;
68025;SDS011;54819;48.030;14.710;2022-11-02T10:44:10;17.80;;;8.20;;
68025;SDS011;54819;48.030;14.710;2022-11-02T10:47:21;21.00;;;9.00;;
68025;SDS011;54819;48.030;14.710;2022-11-02T10:53:00;18.50;;;9.40;;
68025;SDS011;54819;48.030;14.710;2022-11-02T10:56:09;15.20;;;8.60;;
68025;SDS011;54819;48.030;14.710;2022-11-02T11:01:30;16.30;;;8.20;;
68025;SDS011;54819;48.030;14.710;2022-11-02T11:04:05;15.40;;;9.40;;
68025;SDS011;54819;48.030;14.710;2022-11-02T11:06:45;17.20;;;9.30;;
68025;SDS011;54819;48.030;14.710;2022-11-02T11:09:19;16.30;;;9.30;;
68025;SDS011;54819;48.030;14.710;2022-11-02T11:14:43;16.10;;;9.40;;
68025;SDS011;54819;48.030;14.710;2022-11-02T11:17:35;13.10;;;8.80;;
68025;SDS011;54819;48.030;14.710;2022-11-02T11:20:31;17.80;;;9.40;;
68025;SDS011;54819;48.030;14.710;2022-11-02T11:23:23;18.40;;;9.50;;
68025;SDS011;54819;48.030;14.710;2022-11-02T11:26:05;19.70;;;9.60;;
68025;SDS011;54819;48.030;14.710;2022-11-02T11:28:54;15.80;;;9.40;;
68025;SDS011;54819;48.030;14.710;2022-11-02T11:31:22;17.20;;;9.50;;
68025;SDS011;54819;48.030;14.710;2022-11-02T11:33:57;15.40;;;9.30;;
68025;SDS011;54819;48.030;14.710;2022-11-02T11:36:33;18.10;;;9.10;;
68025;SDS011;54819;48.030;14.710;2022-11-02T11:39:22;13.30;;;9.00;;
68025;SDS011;54819;48.030;14.710;2022-11-02T11:41:51;14.10;;;8.10;;
68025;SDS011;54819;48.030;14.710;2022-11-02T11:44:20;14.80;;;9.10;;
68025;SDS011;54819;48.030;14.710;2022-11-02T11:46:55;16.30;;;9.70;;
68025;SDS011;54819;48.030;14.710;2022-11-02T11:49:26;16.70;;;10.60;;
68025;SDS011;54819;48.030;14.710;2022-11-02T11:52:27;16.00;;;9.40;;
68025;SDS011;54819;48.030;14.710;2022-11-02T11:55:27;17.90;;;9.50;;
68025;SDS011;54819;48.030;14.710;2022-11-02T11:58:15;15.40;;;9.30;;
68025;SDS011;54819;48.030;14.710;2022-11-02T12:00:44;15.90;;;9.60;;
68025;SDS011;54819;48.030;14.710;2022-11-02T12:03:12;17.40;;;8.50;;
68025;SDS011;54819;48.030;14.710;2022-11-02T12:14:34;13.90;;;8.80;;
68025;SDS011;54819;48.030;14.710;2022-11-02T12:24:20;13.60;;;7.90;;
68025;SDS011;54819;48.030;14.710;2022-11-02T12:27:03;18.50;;;7.90;;
68025;SDS011;54819;48.030;14.710;2022-11-02T12:30:19;14.30;;;7.70;;
68025;SDS011;54819;48.030;14.710;2022-11-02T12:33:03;14.40;;;8.50;;
68025;SDS011;54819;48.030;14.710;2022-11-02T12:35:52;15.50;;;8.40;;
68025;SDS011;54819;48.030;14.710;2022-11-02T12:56:24;22.50;;;8.50;;
68025;SDS011;54819;48.030;14.710;2022-11-02T12:59:21;14.00;;;8.20;;
68025;SDS011;54819;48.030;14.710;2022-11-02T13:02:02;13.00;;;7.20;;
68025;SDS011;54819;48.030;14.710;2022-11-02T13:04:46;15.90;;;7.50;;
68025;SDS011;54819;48.030;14.710;2022-11-02T13:07:30;15.90;;;7.00;;
68025;SDS011;54819;48.030;14.710;2022-11-02T13:10:27;16.30;;;7.40;;
68025;SDS011;54819;48.030;14.710;2022-11-02T13:13:00;15.80;;;6.60;;
68025;SDS011;54819;48.030;14.710;2022-11-02T13:15:32;15.90;;;6.70;;
68025;SDS011;54819;48.030;14.710;2022-11-02T13:18:05;16.00;;;6.80;;
68025;SDS011;54819;48.030;14.710;2022-11-02T13:20:51;16.10;;;7.20;;
68025;SDS011;54819;48.030;14.710;2022-11-02T13:26:03;16.20;;;7.60;;
68025;SDS011;54819;48.030;14.710;2022-11-02T13:28:47;14.60;;;7.50;;
68025;SDS011;54819;48.030;14.710;2022-11-02T13:31:41;17.60;;;7.40;;
68025;SDS011;54819;48.030;14.710;2022-11-02T13:34:21;11.90;;;6.60;;
68025;SDS011;54819;48.030;14.710;2022-11-02T13:36:56;18.50;;;7.80;;
68025;SDS011;54819;48.030;14.710;2022-11-02T13:53:59;18.90;;;7.00;;
68025;SDS011;54819;48.030;14.710;2022-11-02T13:56:34;14.30;;;6.20;;
68025;SDS011;54819;48.030;14.710;2022-11-02T13:59:06;13.50;;;6.30;;
68025;SDS011;54819;48.030;14.710;2022-11-02T14:01:38;15.70;;;6.50;;
68025;SDS011;54819;48.030;14.710;2022-11-02T14:04:09;8.10;;;5.00;;
68025;SDS011;54819;48.030;14.710;2022-11-02T14:06:45;12.70;;;6.00;;
68025;SDS011;54819;48.030;14.710;2022-11-02T14:09:57;10.80;;;5.30;;
68025;SDS011;54819;48.030;14.710;2022-11-02T14:20:41;10.90;;;3.30;;
68025;SDS011;54819;48.030;14.710;2022-11-02T14:34:37;9.60;;;3.20;;
68025;SDS011;54819;48.030;14.710;2022-11-02T14:42:59;11.30;;;3.40;;
68025;SDS011;54819;48.030;14.710;2022-11-02T14:46:15;8.90;;;3.50;;
68025;SDS011;54819;48.030;14.710;2022-11-02T14:48:53;15.00;;;3.80;;
68025;SDS011;54819;48.030;14.710;2022-11-02T14:51:32;10.70;;;3.30;;
68025;SDS011;54819;48.030;14.710;2022-11-02T14:54:03;11.10;;;3.50;;
68025;SDS011;54819;48.030;14.710;2022-11-02T14:59:39;8.00;;;3.30;;
68025;SDS011;54819;48.030;14.710;2022-11-02T15:02:35;9.60;;;3.90;;
68025;SDS011;54819;48.030;14.710;2022-11-02T15:08:08;7.20;;;3.30;;
68025;SDS011;54819;48.030;14.710;2022-11-02T15:10:48;13.70;;;4.80;;
68025;SDS011;54819;48.030;14.710;2022-11-02T15:18:38;8.70;;;3.50;;
68025;SDS011;54819;48.030;14.710;2022-11-02T15:26:15;8.90;;;3.70;;
68025;SDS011;54819;48.030;14.710;2022-11-02T15:28:48;12.30;;;4.30;;
68025;SDS011;54819;48.030;14.710;2022-11-02T15:31:19;8.90;;;3.40;;
68025;SDS011;54819;48.030;14.710;2022-11-02T15:33:57;12.70;;;3.90;;
68025;SDS011;54819;48.030;14.710;2022-11-02T15:36:32;12.90;;;3.50;;
68025;SDS011;54819;48.030;14.710;2022-11-02T15:39:06;10.00;;;3.10;;
68025;SDS011;54819;48.030;14.710;2022-11-02T15:44:59;8.80;;;2.90;;
68025;SDS011;54819;48.030;14.710;2022-11-02T15:48:31;8.00;;;2.80;;
68025;SDS011;54819;48.030;14.710;2022-11-02T15:51:31;7.00;;;2.80;;
68025;SDS011;54819;48.030;14.710;2022-11-02T15:54:58;5.70;;;2.30;;
68025;SDS011;54819;48.030;14.710;2022-11-02T16:04:54;17.60;;;6.20;;
68025;SDS011;54819;48.030;14.710;2022-11-02T16:07:27;14.50;;;5.60;;
68025;SDS011;54819;48.030;14.710;2022-11-02T16:13:05;15.70;;;5.60;;
68025;SDS011;54819;48.030;14.710;2022-11-02T16:15:39;17.30;;;7.00;;
68025;SDS011;54819;48.030;14.710;2022-11-02T16:18:40;31.40;;;13.10;;
68025;SDS011;54819;48.030;14.710;2022-11-02T16:21:14;36.10;;;14.40;;
68025;SDS011;54819;48.030;14.710;2022-11-02T16:23:47;34.60;;;20.60;;
68025;SDS011;54819;48.030;14.710;2022-11-02T16:26:19;29.20;;;15.00;;
68025;SDS011;54819;48.030;14.710;2022-11-02T16:28:57;25.50;;;13.80;;
68025;SDS011;54819;48.030;14.710;2022-11-02T16:31:26;44.30;;;23.00;;
68025;SDS011;54819;48.030;14.710;2022-11-02T16:34:02;63.00;;;33.70;;
68025;SDS011;54819;48.030;14.710;2022-11-02T16:36:36;33.60;;;17.10;;
68025;SDS011;54819;48.030;14.710;2022-11-02T16:41:48;14.00;;;6.80;;
68025;SDS011;54819;48.030;14.710;2022-11-02T16:44:24;13.60;;;5.10;;
68025;SDS011;54819;48.030;14.710;2022-11-02T16:46:59;21.00;;;8.30;;
68025;SDS011;54819;48.030;14.710;2022-11-02T16:49:33;14.90;;;6.40;;
68025;SDS011;54819;48.030;14.710;2022-11-02T16:52:22;12.20;;;6.20;;
68025;SDS011;54819;48.030;14.710;2022-11-02T16:54:54;17.00;;;5.40;;
68025;SDS011;54819;48.030;14.710;2022-11-02T16:57:28;13.20;;;6.00;;
68025;SDS011;54819;48.030;14.710;2022-11-02T17:00:03;22.50;;;9.40;;
68025;SDS011;54819;48.030;14.710;2022-11-02T17:02:38;24.60;;;9.70;;
68025;SDS011;54819;48.030;14.710;2022-11-02T17:05:18;63.10;;;19.60;;
68025;SDS011;54819;48.030;14.710;2022-11-02T17:08:05;115.20;;;30.70;;
68025;SDS011;54819;48.030;14.710;2022-11-02T17:10:36;80.60;;;23.30;;
68025;SDS011;54819;48.030;14.710;2022-11-02T17:13:12;97.50;;;25.60;;
68025;SDS011;54819;48.030;14.710;2022-11-02T17:15:48;114.40;;;31.90;;
68025;SDS011;54819;48.030;14.710;2022-11-02T17:20:47;88.50;;;26.00;;
68025;SDS011;54819;48.030;14.710;2022-11-02T17:23:35;108.90;;;32.00;;
68025;SDS011;54819;48.030;14.710;2022-11-02T17:28:57;79.50;;;22.70;;
68025;SDS011;54819;48.030;14.710;2022-11-02T17:31:42;46.30;;;16.30;;
68025;SDS011;54819;48.030;14.710;2022-11-02T17:34:16;40.20;;;14.80;;
68025;SDS011;54819;48.030;14.710;2022-11-02T17:36:46;35.40;;;11.50;;
68025;SDS011;54819;48.030;14.710;2022-11-02T17:39:17;43.10;;;13.00;;
68025;SDS011;54819;48.030;14.710;2022-11-02T17:41:54;48.10;;;14.10;;
68025;SDS011;54819;48.030;14.710;2022-11-02T17:44:44;85.90;;;22.30;;
68025;SDS011;54819;48.030;14.710;2022-11-02T17:47:13;42.40;;;12.80;;
68025;SDS011;54819;48.030;14.710;2022-11-02T17:49:43;47.70;;;12.00;;
68025;SDS011;54819;48.030;14.710;2022-11-02T17:52:12;35.50;;;10.80;;
68025;SDS011;54819;48.030;14.710;2022-11-02T17:54:41;29.60;;;9.30;;
68025;SDS011;54819;48.030;14.710;2022-11-02T17:57:12;19.50;;;7.10;;
68025;SDS011;54819;48.030;14.710;2022-11-02T17:59:40;23.00;;;7.00;;